Time,TemperatureF,DewpointF,PressureIn,WindDirection,WindDirectionDegrees,WindSpeedMPH,WindSpeedGustMPH,Humidity,HourlyPrecipIn,Conditions,Clouds,dailyrainin,SoftwareType,DateUTC
2013-10-20 00:00:00,52.0,48.0,29.94,NNE,22,1.0,5.0,86,0.00,,OVC,0.00,VWS V14.01,2013-10-20 04:00:00,
2013-10-20 01:00:00,50.9,46.6,29.94,North,0,2.0,5.0,85,0.00,,OVC,0.00,VWS V14.01,2013-10-20 05:00:00,
2013-10-20 02:00:00,49.7,45.4,29.95,North,0,2.0,8.0,85,0.00,,OVC,0.00,VWS V14.01,2013-10-20 06:00:00,
2013-10-20 03:00:00,48.4,44.4,29.97,West,270,2.0,10.0,86,0.00,,OVC,0.00,VWS V14.01,2013-10-20 07:00:00,
2013-10-20 04:00:00,47.1,42.8,29.97,North,0,2.0,10.0,85,0.00,,OVC,0.00,VWS V14.01,2013-10-20 08:00:00,
2013-10-20 05:00:00,45.6,42.0,29.97,NNE,22,3.0,12.0,87,0.00,,OVC,0.00,VWS V14.01,2013-10-20 09:00:00,
2013-10-20 06:00:00,44.6,40.4,29.97,North,0,3.0,12.0,85,0.00,,OVC,0.00,VWS V14.01,2013-10-20 10:00:00,
2013-10-20 07:00:00,43.7,40.1,29.99,North,0,2.0,8.0,87,0.00,,OVC,0.00,VWS V14.01,2013-10-20 11:00:00,
2013-10-20 08:00:00,43.5,39.9,30.00,NNE,22,1.0,6.0,87,0.00,,OVC,0.00,VWS V14.01,2013-10-20 12:00:00,
2013-10-20 09:00:00,43.8,39.0,30.03,ENE,68,0.0,4.0,83,0.00,,OVC,0.00,VWS V14.01,2013-10-20 13:00:00,
2013-10-20 10:00:00,45.8,39.7,30.05,WSW,248,0.0,2.0,79,0.00,,OVC,0.00,VWS V14.01,2013-10-20 14:00:00,
2013-10-20 11:00:00,49.2,43.3,30.07,WSW,248,0.0,1.0,80,0.00,,OVC,0.00,VWS V14.01,2013-10-20 15:00:00,
2013-10-20 12:00:00,52.3,44.3,30.08,WSW,248,0.0,3.0,74,0.00,,OVC,0.00,VWS V14.01,2013-10-20 16:00:00,
2013-10-20 13:00:00,55.2,44.8,30.07,WSW,248,0.0,4.0,68,0.00,,OVC,0.00,VWS V14.01,2013-10-20 17:00:00,
2013-10-20 14:00:00,60.4,46.9,30.05,WSW,248,0.0,5.0,61,0.00,,OVC,0.00,VWS V14.01,2013-10-20 18:00:00,
2013-10-20 15:00:00,62.9,46.0,30.03,WSW,248,0.0,4.0,54,0.00,,OVC,0.00,VWS V14.01,2013-10-20 19:00:00,
2013-10-20 16:00:00,63.1,48.1,30.03,West,270,0.0,5.0,58,0.00,,OVC,0.00,VWS V14.01,2013-10-20 20:00:00,
2013-10-20 17:00:00,61.9,49.2,30.04,West,270,0.0,4.0,63,0.00,,OVC,0.00,VWS V14.01,2013-10-20 21:00:00,
2013-10-20 18:00:00,59.4,49.6,30.04,West,270,0.0,4.0,70,0.00,,OVC,0.00,VWS V14.01,2013-10-20 22:00:00,
2013-10-20 19:00:00,52.8,47.1,30.05,West,270,0.0,0.0,81,0.00,,OVC,0.00,VWS V14.01,2013-10-20 23:00:00,
2013-10-20 20:00:00,50.5,46.2,30.07,West,270,0.0,0.0,85,0.00,,OVC,0.00,VWS V14.01,2013-10-21 00:00:00,
2013-10-20 21:00:00,49.8,46.1,30.09,West,270,0.0,0.0,87,0.00,,OVC,0.00,VWS V14.01,2013-10-21 01:00:00,
2013-10-20 22:00:00,49.5,45.2,30.10,West,270,0.0,0.0,85,0.00,,OVC,0.00,VWS V14.01,2013-10-21 02:00:00,
2013-10-20 23:00:00,49.8,44.8,30.10,West,270,0.0,0.0,83,0.00,,OVC,0.00,VWS V14.01,2013-10-21 03:00:00,